FW1702 West Palm Beach FL US current weather conditions

sailwx.info

Wind from 259 at 0 knots gusting 6

Air temperature 28.9° C
Dewpoint 24.7° C

Last reported at 2020-Jul-10 04:00 UTC.
Time now 2020-Jul-10 04:42 UTC

Location: N 26°39' W 080°03'.
View on Google Maps.

See reports from other nearby stations

  
Tides and Currents Weather Stations Pressure Air Temp Water Temp Dewpoint Dewpoint Depression Visibility Wind Speed Wind Dir Waves Ship Positions
date/time (UTC)wind fromknots sea level pressurealtimeterstation pressurevisibilityair tempwater tempwave heightnotes
2020-Jul-10 04:00 259 0 gusting 6 28.9
2020-Jul-10 03:45 243 1 gusting 7 29.4
2020-Jul-10 03:30 246 2 gusting 9 29.4
2020-Jul-10 03:15 225 2 gusting 6 30.0
2020-Jul-10 03:01 217 2 gusting 5 30.0
2020-Jul-10 02:45 177 2 gusting 6 30.0
2020-Jul-10 02:30 156 2 gusting 9 30.0
2020-Jul-10 02:15 197 2 gusting 8 30.0
2020-Jul-10 02:00 196 2 gusting 10 30.0
2020-Jul-10 01:46 200 4 gusting 13 30.0
2020-Jul-10 01:30 155 1 gusting 9 30.0
2020-Jul-10 01:15 197 3 gusting 10 30.0
2020-Jul-10 01:00 163 4 gusting 14 30.0
2020-Jul-10 00:45 155 4 gusting 9 30.0
2020-Jul-10 00:30 182 3 gusting 6 30.0
2020-Jul-10 00:15 190 2 gusting 8 30.0
2020-Jul-10 00:00 167 3 gusting 10 30.0
2020-Jul-09 23:45 184 5 gusting 10 30.6
2020-Jul-09 23:30 189 5 gusting 10 30.6
2020-Jul-09 23:15 150 4 gusting 7 31.1
2020-Jul-09 23:00 148 3 gusting 12 31.1
2020-Jul-09 22:45 158 6 gusting 13 31.1
2020-Jul-09 22:30 180 4 gusting 10 31.1
2020-Jul-09 22:15 126 4 gusting 11 31.1
2020-Jul-09 22:00 115 4 gusting 13 31.7
2020-Jul-09 21:45 130 4 gusting 12 32.2
2020-Jul-09 21:30 144 5 gusting 10 31.7
2020-Jul-09 21:15 153 5 gusting 10 32.2
2020-Jul-09 21:00 133 4 gusting 9 32.8
2020-Jul-09 20:45 090 5 gusting 10 32.2
2020-Jul-09 20:30 117 5 gusting 10 32.2
2020-Jul-09 20:15 109 1 gusting 7 33.3
2020-Jul-09 20:00 081 0 gusting 4 35.0
2020-Jul-09 19:47 245 3 gusting 8 35.6
2020-Jul-09 19:31 253 4 gusting 9 35.6
2020-Jul-09 19:16 209 1 gusting 6 35.0
2020-Jul-09 19:01 231 2 gusting 7 35.0
2020-Jul-09 18:46 243 1 gusting 7 34.4
2020-Jul-09 18:31 264 3 gusting 9 35.0
2020-Jul-09 18:16 319 1 gusting 8 35.0
2020-Jul-09 18:02 311 2 gusting 12 34.4
2020-Jul-09 17:46 238 4 gusting 8 34.4
2020-Jul-09 17:31 269 3 gusting 11 34.4
2020-Jul-09 17:16 225 3 gusting 8 34.4
2020-Jul-09 17:01 281 4 gusting 8 33.9
2020-Jul-09 16:46 250 2 gusting 6 33.9
2020-Jul-09 16:30 284 2 gusting 6 33.3
2020-Jul-09 16:16 246 1 gusting 6 33.3
2020-Jul-09 16:01 259 3 gusting 9 32.8
2020-Jul-09 15:45 255 2 gusting 9 32.2
2020-Jul-09 15:31 263 1 gusting 6 32.2
2020-Jul-09 15:16 271 3 gusting 6 31.1
2020-Jul-09 15:01 261 2 gusting 6 31.1
2020-Jul-09 14:46 244 1 gusting 5 31.1
2020-Jul-09 14:30 044 2 gusting 6 31.1
2020-Jul-09 14:15 269 1 gusting 6 30.6
2020-Jul-09 14:01 276 1 gusting 6 30.6
2020-Jul-09 13:45 322 3 gusting 8 29.4
2020-Jul-09 13:30 258 2 gusting 7 29.4
2020-Jul-09 13:15 261 1 gusting 6 28.9
2020-Jul-09 13:00 269 2 gusting 6 28.9
2020-Jul-09 12:45 269 1 gusting 6 28.3
2020-Jul-09 12:31 287 1 gusting 6 27.8
2020-Jul-09 12:15 309 0 gusting 4 27.2
2020-Jul-09 12:00 246 26.7
2020-Jul-09 11:45 246 26.1
2020-Jul-09 11:30 246 26.1
2020-Jul-09 11:15 246 26.1
2020-Jul-09 11:00 246 26.1
2020-Jul-09 10:45 246 25.6
2020-Jul-09 10:30 246 26.1
2020-Jul-09 10:15 246 26.1
2020-Jul-09 10:00 246 26.1
2020-Jul-09 09:45 246 26.1
2020-Jul-09 09:30 246 26.7
2020-Jul-09 09:15 246 26.7
2020-Jul-09 09:01 246 26.7
2020-Jul-09 08:46 246 26.7
2020-Jul-09 08:31 246 26.7
2020-Jul-09 08:16 246 27.2
2020-Jul-09 08:01 246 27.2
2020-Jul-09 07:46 246 27.2
2020-Jul-09 07:31 246 27.2
2020-Jul-09 07:16 246 27.2
2020-Jul-09 07:01 246 27.8
2020-Jul-09 06:47 246 27.8
2020-Jul-09 06:30 246 27.8
2020-Jul-09 06:16 246 28.3
2020-Jul-09 06:01 246 28.3
2020-Jul-09 05:46 246 28.3
2020-Jul-09 05:31 246 28.3
2020-Jul-09 05:16 246 1 gusting 4 28.9
2020-Jul-09 05:00 242 0 gusting 3 28.9
2020-Jul-09 04:45 045 0 gusting 3 28.9
2020-Jul-09 04:30 045 28.9
2020-Jul-09 04:15 045 28.9
2020-Jul-09 04:01 044 0 gusting 3 28.9
2020-Jul-09 03:46 044 28.9
2020-Jul-09 03:31 044 28.9
2020-Jul-09 03:15 044 28.9
2020-Jul-09 03:01 044 28.9
2020-Jul-09 02:45 044 28.9
2020-Jul-09 02:30 044 29.4
2020-Jul-09 02:15 044 29.4
2020-Jul-09 02:00 044 29.4
2020-Jul-09 01:45 044 29.4
2020-Jul-09 01:30 044 29.4
2020-Jul-09 01:15 044 28.9
2020-Jul-09 01:01 044 28.9
2020-Jul-09 00:45 044 0 gusting 7 28.9
2020-Jul-09 00:30 086 3 gusting 7 29.4
2020-Jul-09 00:15 287 0 gusting 6 30.0
2020-Jul-08 23:45 231 3 gusting 7 30.6
2020-Jul-08 23:30 265 3 gusting 9 31.7
2020-Jul-08 23:15 238 5 gusting 11 32.2
2020-Jul-08 23:00 236 1 gusting 6 32.2
2020-Jul-08 22:45 220 1 gusting 6 32.2
2020-Jul-08 22:30 208 1 gusting 6 32.8
2020-Jul-08 22:15 179 3 gusting 7 33.9
2020-Jul-08 22:00 229 2 gusting 6 33.3
2020-Jul-08 21:45 199 2 gusting 6 33.9
2020-Jul-08 21:30 141 2 gusting 9 32.2
2020-Jul-08 21:15 148 4 gusting 9 32.8
2020-Jul-08 21:00 142 2 gusting 8 32.2
2020-Jul-08 20:45 112 4 gusting 9 31.7
2020-Jul-08 20:30 121 3 gusting 9 31.7
2020-Jul-08 20:18 138 3 gusting 7 31.7
2020-Jul-08 20:02 136 5 gusting 10 31.7
2020-Jul-08 19:47 102 4 gusting 8 32.2
2020-Jul-08 19:32 137 4 gusting 9 32.8
2020-Jul-08 19:16 157 3 gusting 7 33.3
2020-Jul-08 19:01 117 5 gusting 10 32.8
2020-Jul-08 18:46 102 4 gusting 11 32.8
2020-Jul-08 18:33 140 5 gusting 9 33.3
2020-Jul-08 18:16 120 4 gusting 10 33.3
2020-Jul-08 18:02 152 4 gusting 9 32.8
2020-Jul-08 17:45 136 6 gusting 11 32.2
2020-Jul-08 17:31 125 4 gusting 8 32.2
2020-Jul-08 17:15 098 4 gusting 9 32.8
2020-Jul-08 17:00 067 3 gusting 7 32.8
2020-Jul-08 16:45 129 3 gusting 8 32.8
2020-Jul-08 16:30 099 2 gusting 6 32.8
2020-Jul-08 16:15 103 4 gusting 8 32.2
2020-Jul-08 16:00 123 3 gusting 7 32.2
2020-Jul-08 15:45 094 4 gusting 7 32.2
2020-Jul-08 15:30 093 2 gusting 6 31.7
2020-Jul-08 15:15 095 1 gusting 6 31.7
2020-Jul-08 15:00 123 3 gusting 7 31.7
2020-Jul-08 14:45 108 1 gusting 6 31.7
2020-Jul-08 14:30 203 0 gusting 4 31.1
2020-Jul-08 14:15 205 2 gusting 4 31.1
2020-Jul-08 14:00 205 0 gusting 4 30.6
2020-Jul-08 13:45 216 2 gusting 4 30.6
2020-Jul-08 13:30 202 1 gusting 4 30.6
2020-Jul-08 13:15 199 1 gusting 4 30.0
2020-Jul-08 13:00 215 0 gusting 4 29.4
2020-Jul-08 12:45 250 1 gusting 3 28.9
2020-Jul-08 12:30 274 28.9
2020-Jul-08 12:17 281 28.3
2020-Jul-08 12:01 281 27.8
2020-Jul-08 11:46 281 27.8
2020-Jul-08 11:31 281 26.7
2020-Jul-08 11:16 281 25.6
2020-Jul-08 11:01 281 25.6
2020-Jul-08 10:47 281 25.6
2020-Jul-08 10:32 281 25.6
2020-Jul-08 10:16 281 25.6
2020-Jul-08 10:02 281 25.6
2020-Jul-08 09:46 281 25.6
2020-Jul-08 09:32 281 25.6
2020-Jul-08 09:15 281 25.6
2020-Jul-08 09:01 281 25.6
2020-Jul-08 08:47 281 25.6
2020-Jul-08 08:30 281 25.6
2020-Jul-08 08:16 281 26.1
2020-Jul-08 08:01 281 26.1
2020-Jul-08 07:45 281 26.1
2020-Jul-08 07:31 281 26.1
2020-Jul-08 07:15 281 26.1
2020-Jul-08 07:00 281 26.1
2020-Jul-08 06:46 281 26.1
2020-Jul-08 06:30 281 26.1
2020-Jul-08 06:15 281 26.1
2020-Jul-08 06:00 281 26.7
2020-Jul-08 05:45 281 26.1
2020-Jul-08 05:31 281 26.7
2020-Jul-08 05:15 281 26.1
2020-Jul-08 05:00 281 26.1
2020-Jul-08 04:46 281 26.7
2020-Jul-08 04:30 281 26.7
2020-Jul-08 04:15 281 26.7
2020-Jul-08 04:00 281 26.7